createdAt,value
2019-03-06T00:00:17.649Z,99638.80
2019-03-06T00:02:43.937Z,99635.14
2019-03-06T00:05:10.203Z,99638.73
2019-03-06T00:07:36.436Z,99636.42
2019-03-06T00:10:42.256Z,99640.16
2019-03-06T00:13:08.420Z,99637.45
2019-03-06T00:15:34.560Z,99639.40
2019-03-06T00:18:00.844Z,99644.93
2019-03-06T00:20:26.990Z,99640.63
2019-03-06T00:22:53.171Z,99644.16
2019-03-06T00:25:19.326Z,99642.52
2019-03-06T00:27:45.523Z,99648.73
2019-03-06T00:30:14.585Z,99642.61
2019-03-06T00:32:41.449Z,99649.97
2019-03-06T00:35:11.699Z,99652.22
2019-03-06T00:37:37.880Z,99651.90
2019-03-06T00:40:22.805Z,99647.52
2019-03-06T00:42:49.940Z,99645.81
2019-03-06T00:45:16.098Z,99651.37
2019-03-06T00:47:42.395Z,99650.34
2019-03-06T00:50:08.609Z,99654.59
2019-03-06T00:52:34.878Z,99653.55
2019-03-06T00:55:01.413Z,99652.73
2019-03-06T00:57:27.863Z,99650.48
2019-03-06T00:59:54.061Z,99653.61
2019-03-06T01:02:20.295Z,99653.88
2019-03-06T01:04:46.470Z,99652.08
2019-03-06T01:07:12.608Z,99648.30
2019-03-06T01:09:38.812Z,99648.97
2019-03-06T01:12:05.053Z,99646.83
2019-03-06T01:14:31.230Z,99648.95
2019-03-06T01:16:57.412Z,99648.94
2019-03-06T01:19:23.846Z,99642.70
2019-03-06T01:21:49.986Z,99642.95
2019-03-06T01:24:16.503Z,99638.38
2019-03-06T01:27:02.541Z,99648.48
2019-03-06T01:29:28.734Z,99645.95
2019-03-06T01:31:54.858Z,99647.64
2019-03-06T01:34:31.724Z,99645.28
2019-03-06T01:37:00.061Z,99641.95
2019-03-06T01:39:31.376Z,99644.23
2019-03-06T01:42:02.419Z,99649.13
2019-03-06T01:44:30.514Z,99654.65
2019-03-06T01:46:56.669Z,99656.50
2019-03-06T01:49:23.168Z,99656.34
2019-03-06T01:51:49.330Z,99656.78
2019-03-06T01:54:15.524Z,99661.91
2019-03-06T01:56:41.676Z,99654.33
2019-03-06T01:59:07.857Z,99657.60
2019-03-06T02:01:34.095Z,99661.03
2019-03-06T02:04:01.103Z,99664.13
2019-03-06T02:06:27.623Z,99665.72
2019-03-06T02:08:54.794Z,99666.68
2019-03-06T02:11:21.286Z,99672.85
2019-03-06T02:13:47.570Z,99672.17
2019-03-06T02:16:13.991Z,99678.35
2019-03-06T02:18:40.383Z,99677.62
2019-03-06T02:21:06.647Z,99682.17
2019-03-06T02:23:32.824Z,99681.94
2019-03-06T02:25:59.110Z,99682.94
2019-03-06T02:28:25.341Z,99689.73
2019-03-06T02:30:51.497Z,99687.08
2019-03-06T02:33:18.362Z,99692.34
2019-03-06T02:35:44.527Z,99691.79
2019-03-06T02:38:11.051Z,99690.96
2019-03-06T02:40:37.684Z,99693.41
2019-03-06T02:43:03.853Z,99693.36
2019-03-06T02:45:30.347Z,99696.11
2019-03-06T02:48:16.382Z,99693.42
2019-03-06T02:51:20.535Z,99694.63
2019-03-06T02:53:47.285Z,99689.31
2019-03-06T02:56:13.495Z,99688.59
2019-03-06T02:58:41.537Z,99689.25
2019-03-06T03:01:09.612Z,99689.09
2019-03-06T03:03:37.666Z,99688.52
2019-03-06T03:06:14.627Z,99685.98
2019-03-06T03:08:40.777Z,99685.99
2019-03-06T03:11:06.994Z,99690.50
2019-03-06T03:13:33.444Z,99693.78
2019-03-06T03:15:59.613Z,99698.19
2019-03-06T03:18:25.753Z,99694.84
2019-03-06T03:20:52.329Z,99695.73
2019-03-06T03:23:18.524Z,99691.54
2019-03-06T03:25:44.867Z,99695.42
2019-03-06T03:28:11.384Z,99691.91
2019-03-06T03:30:37.686Z,99696.81
2019-03-06T03:33:04.145Z,99692.62
2019-03-06T03:35:30.317Z,99691.64
2019-03-06T03:37:56.570Z,99688.78
2019-03-06T03:40:22.749Z,99688.59
2019-03-06T03:42:48.880Z,99686.91
2019-03-06T03:45:15.563Z,99698.42
2019-03-06T03:47:41.721Z,99699.61
2019-03-06T03:50:09.672Z,99699.92
2019-03-06T03:52:35.911Z,99700.88
2019-03-06T03:55:08.813Z,99698.03
2019-03-06T03:57:34.972Z,99702.88
2019-03-06T04:00:01.180Z,99709.66
2019-03-06T04:02:27.354Z,99707.78
2019-03-06T04:04:53.780Z,99713.31
2019-03-06T04:07:20.228Z,99717.08
2019-03-06T04:09:46.391Z,99719.19
2019-03-06T04:12:12.559Z,99717.78
2019-03-06T04:14:38.702Z,99714.28
2019-03-06T04:17:04.877Z,99717.36
2019-03-06T04:19:31.009Z,99713.53
2019-03-06T04:21:57.189Z,99715.56
2019-03-06T04:24:23.652Z,99714.00
2019-03-06T04:26:49.861Z,99715.66
2019-03-06T04:29:16.026Z,99715.66
2019-03-06T04:31:42.566Z,99717.45
2019-03-06T04:34:08.720Z,99721.45
2019-03-06T04:36:34.955Z,99714.14
2019-03-06T04:39:01.078Z,99708.42
2019-03-06T04:41:27.304Z,99705.84
2019-03-06T04:43:53.783Z,99705.89
2019-03-06T04:46:19.959Z,99697.86
2019-03-06T04:48:46.412Z,99698.95
2019-03-06T04:51:13.210Z,99697.29
2019-03-06T04:53:39.422Z,99694.59
2019-03-06T04:56:05.703Z,99696.48
2019-03-06T04:58:31.862Z,99692.11
2019-03-06T05:00:58.038Z,99690.23
2019-03-06T05:03:24.500Z,99691.03
2019-03-06T05:05:50.698Z,99686.73
2019-03-06T05:08:16.833Z,99686.06
2019-03-06T05:10:43.423Z,99687.61
2019-03-06T05:13:09.567Z,99684.93
2019-03-06T05:15:36.144Z,99686.32
2019-03-06T05:18:16.390Z,99690.02
2019-03-06T05:20:42.560Z,99688.50
2019-03-06T05:23:08.693Z,99688.33
2019-03-06T05:25:36.157Z,99699.17
2019-03-06T05:28:02.454Z,99707.92
2019-03-06T05:30:29.839Z,99719.19
2019-03-06T05:33:01.703Z,99713.28
2019-03-06T05:35:48.712Z,99717.31
2019-03-06T05:38:23.209Z,99721.60
2019-03-06T05:40:49.672Z,99722.84
2019-03-06T05:43:15.918Z,99720.23
2019-03-06T05:45:42.383Z,99709.56
2019-03-06T05:48:08.548Z,99697.65
2019-03-06T05:50:34.746Z,99710.91
2019-03-06T05:53:01.040Z,99711.50
2019-03-06T05:55:27.243Z,99716.74
2019-03-06T05:57:53.410Z,99714.30
2019-03-06T06:00:24.189Z,99717.77
2019-03-06T06:02:50.306Z,99716.52
2019-03-06T06:05:16.512Z,99715.16
2019-03-06T06:07:42.667Z,99715.19
2019-03-06T06:10:11.757Z,99704.47
2019-03-06T06:12:37.989Z,99701.12
2019-03-06T06:15:10.534Z,99698.09
2019-03-06T06:17:36.683Z,99697.09
2019-03-06T06:20:07.185Z,99696.73
2019-03-06T06:22:38.548Z,99700.77
2019-03-06T06:25:05.059Z,99697.97
2019-03-06T06:27:31.196Z,99689.77
2019-03-06T06:29:57.373Z,99689.48
2019-03-06T06:32:23.512Z,99692.62
2019-03-06T06:34:49.942Z,99686.87
2019-03-06T06:37:16.086Z,99676.66
2019-03-06T06:39:42.257Z,99674.34
2019-03-06T06:42:08.628Z,99673.28
2019-03-06T06:44:34.837Z,99671.49
2019-03-06T06:47:01.309Z,99672.50
2019-03-06T06:49:27.469Z,99668.84
2019-03-06T06:52:04.849Z,99672.09
2019-03-06T06:54:42.971Z,99662.20
2019-03-06T06:57:47.462Z,99658.26
2019-03-06T07:00:26.730Z,99660.61
2019-03-06T07:03:07.966Z,99666.78
2019-03-06T07:05:36.144Z,99664.63
2019-03-06T07:08:04.390Z,99665.41
2019-03-06T07:10:44.498Z,99670.48
2019-03-06T07:13:29.338Z,99669.03
2019-03-06T07:16:03.869Z,99668.83
2019-03-06T07:18:35.008Z,99663.57
2019-03-06T07:21:05.740Z,99650.61
2019-03-06T07:23:49.014Z,99651.42
2019-03-06T07:26:33.908Z,99644.20
2019-03-06T07:29:04.485Z,99638.09
2019-03-06T07:31:38.521Z,99634.81
2019-03-06T07:34:06.574Z,99632.95
2019-03-06T07:36:43.399Z,99636.63
2019-03-06T07:39:11.866Z,99632.64
2019-03-06T07:41:42.572Z,99632.81
2019-03-06T07:44:30.440Z,99628.32
2019-03-06T07:47:00.029Z,99626.84
2019-03-06T07:49:45.527Z,99620.77
2019-03-06T07:52:15.515Z,99615.77
2019-03-06T07:54:43.802Z,99610.08
2019-03-06T07:57:11.901Z,99614.38
2019-03-06T07:59:38.039Z,99611.54
2019-03-06T08:02:15.728Z,99604.45
2019-03-06T08:04:51.291Z,99598.02
2019-03-06T08:07:17.450Z,99593.14
2019-03-06T08:09:43.614Z,99589.33
2019-03-06T08:12:20.917Z,99581.51
2019-03-06T08:15:05.927Z,99587.01
2019-03-06T08:17:52.382Z,99589.48
2019-03-06T08:20:29.154Z,99594.48
2019-03-06T08:23:00.118Z,99594.72
2019-03-06T08:25:28.437Z,99603.64
2019-03-06T08:27:54.621Z,99600.31
2019-03-06T08:30:22.073Z,99602.70
2019-03-06T08:32:48.254Z,99590.31
2019-03-06T08:35:14.382Z,99589.77
2019-03-06T08:37:40.565Z,99592.32
2019-03-06T08:40:09.508Z,99590.78
2019-03-06T08:42:35.706Z,99582.70
2019-03-06T08:45:05.877Z,99586.58
2019-03-06T08:47:33.963Z,99580.55
2019-03-06T08:50:04.972Z,99572.65
2019-03-06T08:52:33.445Z,99572.52
2019-03-06T08:55:11.140Z,99560.38
2019-03-06T08:57:39.323Z,99556.36
2019-03-06T09:00:12.786Z,99554.55
2019-03-06T09:02:49.918Z,99547.88
2019-03-06T09:05:24.124Z,99544.84
2019-03-06T09:07:54.919Z,99544.23
2019-03-06T09:10:41.461Z,99541.55
2019-03-06T09:13:15.544Z,99536.87
2019-03-06T09:15:55.921Z,99529.34
2019-03-06T09:18:23.971Z,99528.17
2019-03-06T09:20:54.702Z,99524.92
2019-03-06T09:23:39.615Z,99526.01
2019-03-06T09:26:07.702Z,99513.55
2019-03-06T09:28:42.247Z,99516.72
2019-03-06T09:31:33.011Z,99518.35
2019-03-06T09:34:04.052Z,99507.67
2019-03-06T09:36:49.149Z,99503.41
2019-03-06T09:39:53.578Z,99492.39
2019-03-06T09:42:21.631Z,99492.33
2019-03-06T09:45:06.186Z,99486.20
2019-03-06T09:47:40.170Z,99483.28
2019-03-06T09:50:16.798Z,99473.48
2019-03-06T09:53:01.457Z,99479.98
2019-03-06T09:55:46.081Z,99477.77
2019-03-06T09:58:16.832Z,99477.91
2019-03-06T10:01:01.624Z,99479.69
2019-03-06T10:03:35.968Z,99481.77
2019-03-06T10:06:04.043Z,99470.55
2019-03-06T10:08:44.348Z,99460.73
2019-03-06T10:11:27.789Z,99464.63
2019-03-06T10:14:01.561Z,99466.31
2019-03-06T10:16:29.737Z,99463.02
2019-03-06T10:19:03.411Z,99460.78
2019-03-06T10:21:29.567Z,99461.41
2019-03-06T10:23:55.745Z,99455.89
2019-03-06T10:26:22.355Z,99454.21
2019-03-06T10:28:48.789Z,99450.39
2019-03-06T10:31:15.373Z,99433.72
2019-03-06T10:33:42.010Z,99423.42
2019-03-06T10:36:08.458Z,99415.63
2019-03-06T10:38:34.622Z,99415.41
2019-03-06T10:41:00.888Z,99411.86
2019-03-06T10:43:27.044Z,99416.95
2019-03-06T10:45:53.217Z,99431.88
2019-03-06T10:48:19.364Z,99431.63
2019-03-06T10:50:45.561Z,99412.97
2019-03-06T10:53:11.816Z,99410.86
2019-03-06T10:55:37.984Z,99399.15
2019-03-06T10:58:04.226Z,99390.67
2019-03-06T11:00:35.547Z,99397.31
2019-03-06T11:03:01.788Z,99401.63
2019-03-06T11:05:29.962Z,99401.15
2019-03-06T11:07:58.527Z,99396.53
2019-03-06T11:10:25.806Z,99409.05
2019-03-06T11:12:54.155Z,99389.64
2019-03-06T11:15:21.123Z,99384.71
2019-03-06T11:17:48.083Z,99380.95
2019-03-06T11:20:33.679Z,99368.98
2019-03-06T11:23:05.054Z,99373.86
2019-03-06T11:25:32.133Z,99367.66
2019-03-06T11:27:58.390Z,99361.66
2019-03-06T11:30:38.815Z,99367.11
2019-03-06T11:33:07.751Z,99359.34
2019-03-06T11:35:35.940Z,99354.16
2019-03-06T11:38:03.339Z,99353.11
2019-03-06T11:40:29.769Z,99359.24
2019-03-06T11:42:55.912Z,99351.42
2019-03-06T11:45:22.306Z,99350.77
2019-03-06T11:47:48.454Z,99347.31
2019-03-06T11:50:16.244Z,99338.91
2019-03-06T11:52:42.402Z,99343.00
2019-03-06T11:55:11.866Z,99340.59
2019-03-06T11:57:38.108Z,99334.51
2019-03-06T12:00:35.465Z,99339.37
2019-03-06T12:03:02.108Z,99331.49
2019-03-06T12:05:28.964Z,99334.22
2019-03-06T12:07:55.128Z,99337.50
2019-03-06T12:10:22.108Z,99333.77
2019-03-06T12:12:48.265Z,99328.69
2019-03-06T12:15:15.441Z,99325.19
2019-03-06T12:17:41.882Z,99325.10
2019-03-06T12:20:08.621Z,99324.84
2019-03-06T12:22:35.167Z,99311.19
2019-03-06T12:25:01.416Z,99312.65
2019-03-06T12:27:27.584Z,99307.33
2019-03-06T12:29:54.757Z,99315.09
2019-03-06T12:32:20.909Z,99315.02
2019-03-06T12:34:47.044Z,99300.00
2019-03-06T12:37:13.244Z,99299.31
2019-03-06T12:39:39.629Z,99291.85
2019-03-06T12:42:13.909Z,99295.41
2019-03-06T12:44:34.241Z,99287.69
2019-03-06T12:47:00.421Z,99283.79
2019-03-06T12:49:26.580Z,99272.68
2019-03-06T12:51:54.630Z,99255.27
2019-03-06T12:54:20.830Z,99250.22
2019-03-06T12:56:46.991Z,99237.94
2019-03-06T12:59:13.133Z,99238.30
2019-03-06T13:01:39.535Z,99234.50
2019-03-06T13:04:05.676Z,99231.36
2019-03-06T13:06:31.878Z,99219.05
2019-03-06T13:08:58.714Z,99217.08
2019-03-06T13:11:24.981Z,99211.72
2019-03-06T13:13:51.129Z,99213.11
2019-03-06T13:16:17.539Z,99194.55
2019-03-06T13:19:03.573Z,99191.17
2019-03-06T13:21:29.756Z,99194.57
2019-03-06T13:23:55.904Z,99187.03
2019-03-06T13:26:22.097Z,99173.66
2019-03-06T13:28:56.921Z,99164.95
2019-03-06T13:31:16.334Z,99154.18
2019-03-06T13:33:44.480Z,99157.72
2019-03-06T13:36:12.356Z,99160.11
2019-03-06T13:38:41.246Z,99156.13
2019-03-06T13:41:07.426Z,99153.16
2019-03-06T13:43:33.597Z,99141.73
2019-03-06T13:45:59.848Z,99143.53
2019-03-06T13:48:26.012Z,99122.44
2019-03-06T13:50:52.161Z,99121.20
2019-03-06T13:53:20.553Z,99126.98
2019-03-06T13:55:46.760Z,99117.80
2019-03-06T13:58:12.945Z,99111.13
2019-03-06T14:00:39.117Z,99105.77
2019-03-06T14:03:05.587Z,99100.23
2019-03-06T14:05:32.127Z,99087.58
2019-03-06T14:07:58.574Z,99078.42
2019-03-06T14:10:25.228Z,99071.78
2019-03-06T14:12:52.068Z,99061.22
2019-03-06T14:15:19.552Z,99061.87
2019-03-06T14:17:45.822Z,99066.84
2019-03-06T14:20:15.987Z,99049.02
2019-03-06T14:22:45.470Z,99058.34
2019-03-06T14:25:13.026Z,99058.78
2019-03-06T14:27:39.502Z,99057.86
2019-03-06T14:30:19.909Z,99055.14
2019-03-06T14:32:46.207Z,99049.14
2019-03-06T14:35:12.348Z,99048.03
2019-03-06T14:37:39.026Z,99044.06
2019-03-06T14:40:19.463Z,99030.77
2019-03-06T14:42:45.639Z,99034.17
2019-03-06T14:45:13.094Z,99027.89
2019-03-06T14:47:39.271Z,99018.81
2019-03-06T14:50:07.023Z,99022.41
2019-03-06T14:52:33.274Z,99026.10
2019-03-06T14:54:59.696Z,99039.63
2019-03-06T14:57:25.888Z,99031.97
2019-03-06T14:59:52.164Z,99024.62
2019-03-06T15:02:18.330Z,99020.86
2019-03-06T15:04:44.496Z,99021.35
2019-03-06T15:07:10.922Z,99018.09
2019-03-06T15:09:37.229Z,99014.96
2019-03-06T15:12:03.372Z,99010.17
2019-03-06T15:14:36.083Z,99009.06
2019-03-06T15:16:57.610Z,99019.09
2019-03-06T15:19:23.854Z,99014.89
2019-03-06T15:21:50.808Z,98998.69
2019-03-06T15:24:16.990Z,98985.43
2019-03-06T15:26:43.271Z,98973.16
2019-03-06T15:29:09.551Z,98961.70
2019-03-06T15:31:35.855Z,98964.34
2019-03-06T15:34:02.110Z,98960.83
2019-03-06T15:36:28.766Z,98960.38
2019-03-06T15:38:54.968Z,98957.73
2019-03-06T15:41:21.127Z,98955.76
2019-03-06T15:43:47.353Z,98962.30
2019-03-06T15:46:13.495Z,98964.06
2019-03-06T15:48:39.690Z,98944.69
2019-03-06T15:51:05.841Z,98945.89
2019-03-06T15:53:32.017Z,98932.34
2019-03-06T15:55:58.453Z,98921.39
2019-03-06T15:58:24.610Z,98928.56
2019-03-06T16:00:50.745Z,98921.95
2019-03-06T16:03:17.092Z,98917.17
2019-03-06T16:05:43.445Z,98913.72
2019-03-06T16:08:11.929Z,98905.94
2019-03-06T16:10:39.272Z,98910.97
2019-03-06T16:13:05.843Z,98904.73
2019-03-06T16:15:32.119Z,98900.12
2019-03-06T16:18:01.614Z,98900.45
2019-03-06T16:20:27.797Z,98893.98
2019-03-06T16:22:54.001Z,98888.77
2019-03-06T16:25:20.724Z,98880.56
2019-03-06T16:27:46.904Z,98877.30
2019-03-06T16:30:16.561Z,98869.18
2019-03-06T16:32:42.984Z,98867.55
2019-03-06T16:35:09.625Z,98863.05
2019-03-06T16:37:35.839Z,98854.81
2019-03-06T16:40:09.779Z,98852.36
2019-03-06T16:42:35.960Z,98852.11
2019-03-06T16:45:05.445Z,98852.32
2019-03-06T16:47:31.660Z,98845.90
2019-03-06T16:49:57.805Z,98838.99
2019-03-06T16:52:23.986Z,98845.20
2019-03-06T16:54:50.226Z,98846.22
2019-03-06T16:57:16.418Z,98842.61
2019-03-06T16:59:42.879Z,98842.59
2019-03-06T17:02:09.818Z,98844.11
2019-03-06T17:04:36.949Z,98833.19
2019-03-06T17:07:03.444Z,98830.88
2019-03-06T17:11:55.687Z,98821.63
2019-03-06T17:14:23.038Z,98819.00
2019-03-06T17:16:49.177Z,98811.41
2019-03-06T17:19:15.637Z,98809.09
2019-03-06T17:21:42.175Z,98814.44
2019-03-06T17:24:08.779Z,98812.11
2019-03-06T17:26:35.323Z,98807.68
2019-03-06T17:29:08.821Z,98808.88
2019-03-06T17:31:35.262Z,98811.20
2019-03-06T17:34:01.469Z,98808.41
2019-03-06T17:36:27.620Z,98814.23
2019-03-06T17:38:53.809Z,98814.77
2019-03-06T17:41:20.421Z,98808.12
2019-03-06T17:43:46.855Z,98802.86
2019-03-06T17:46:13.188Z,98805.72
2019-03-06T17:48:39.448Z,98805.25
2019-03-06T17:51:05.862Z,98803.59
2019-03-06T17:53:32.138Z,98808.56
2019-03-06T17:55:58.543Z,98802.77
2019-03-06T17:58:24.803Z,98795.84
2019-03-06T18:00:55.523Z,98781.95
2019-03-06T18:03:23.612Z,98787.09
2019-03-06T18:05:49.756Z,98770.05
2019-03-06T18:08:16.014Z,98766.28
2019-03-06T18:10:42.683Z,98764.95
2019-03-06T18:13:09.103Z,98761.83
2019-03-06T18:15:35.285Z,98758.39
2019-03-06T18:18:01.413Z,98756.73
2019-03-06T18:20:27.937Z,98750.91
2019-03-06T18:22:55.262Z,98743.47
2019-03-06T18:25:23.699Z,98742.97
2019-03-06T18:27:49.839Z,98739.78
2019-03-06T18:30:18.910Z,98736.59
2019-03-06T18:32:46.110Z,98734.58
2019-03-06T18:35:17.237Z,98734.26
2019-03-06T18:37:43.794Z,98724.66
2019-03-06T18:40:24.546Z,98725.31
2019-03-06T18:42:50.795Z,98733.41
2019-03-06T18:45:18.977Z,98726.61
2019-03-06T18:47:45.225Z,98728.91
2019-03-06T18:50:17.480Z,98719.83
2019-03-06T18:52:44.291Z,98725.80
2019-03-06T18:55:13.487Z,98722.67
2019-03-06T18:57:40.506Z,98720.48
2019-03-06T19:00:21.472Z,98720.50
2019-03-06T19:02:47.723Z,98719.03
2019-03-06T19:05:15.829Z,98718.05
2019-03-06T19:07:42.061Z,98713.08
2019-03-06T19:10:12.640Z,98712.45
2019-03-06T19:12:39.141Z,98715.63
2019-03-06T19:15:16.343Z,98716.16
2019-03-06T19:17:42.652Z,98705.10
2019-03-06T19:20:09.959Z,98707.27
2019-03-06T19:22:36.423Z,98701.00
2019-03-06T19:25:06.662Z,98705.30
2019-03-06T19:27:32.965Z,98698.23
2019-03-06T19:29:59.468Z,98699.71
2019-03-06T19:32:25.903Z,98704.38
2019-03-06T19:34:52.108Z,98705.52
2019-03-06T19:37:18.282Z,98700.39
2019-03-06T19:39:44.478Z,98701.20
2019-03-06T19:42:10.639Z,98703.84
2019-03-06T19:44:36.820Z,98702.88
2019-03-06T19:47:03.061Z,98703.22
2019-03-06T19:49:29.548Z,98699.72
2019-03-06T19:51:55.898Z,98695.09
2019-03-06T19:54:22.069Z,98691.11
2019-03-06T19:56:48.237Z,98684.67
2019-03-06T19:59:14.410Z,98684.49
2019-03-06T20:01:40.604Z,98680.67
2019-03-06T20:04:06.760Z,98680.98
2019-03-06T20:06:33.044Z,98677.17
2019-03-06T20:08:59.190Z,98674.03
2019-03-06T20:11:25.987Z,98679.65
2019-03-06T20:13:52.131Z,98673.54
2019-03-06T20:16:18.324Z,98685.60
2019-03-06T20:18:44.745Z,98671.52
2019-03-06T20:21:11.213Z,98669.66
2019-03-06T20:23:37.406Z,98663.38
2019-03-06T20:26:03.611Z,98664.34
2019-03-06T20:28:29.754Z,98664.32
2019-03-06T20:30:55.950Z,98660.98
2019-03-06T20:33:22.282Z,98660.31
2019-03-06T20:35:48.460Z,98651.22
2019-03-06T20:38:14.625Z,98644.56
2019-03-06T20:43:26.113Z,98630.02
2019-03-06T20:45:52.622Z,98623.72
2019-03-06T20:48:19.059Z,98614.78
2019-03-06T20:50:45.604Z,98607.84
2019-03-06T20:53:12.041Z,98610.84
2019-03-06T20:55:38.207Z,98599.13
2019-03-06T20:58:04.708Z,98601.47
2019-03-06T21:00:31.113Z,98607.62
2019-03-06T21:02:57.339Z,98602.98
2019-03-06T21:05:23.848Z,98602.83
2019-03-06T21:07:50.385Z,98602.00
2019-03-06T21:10:18.139Z,98597.84
2019-03-06T21:12:45.017Z,98600.96
2019-03-06T21:15:15.000Z,98601.79
2019-03-06T21:17:41.651Z,98601.31
2019-03-06T21:20:12.166Z,98597.36
2019-03-06T21:22:38.571Z,98592.70
2019-03-06T21:25:08.934Z,98594.03
2019-03-06T21:27:35.339Z,98587.89
2019-03-06T21:30:04.966Z,98593.37
2019-03-06T21:32:31.718Z,98588.06
2019-03-06T21:34:58.863Z,98589.39
2019-03-06T21:37:25.097Z,98588.77
2019-03-06T21:39:51.263Z,98592.72
2019-03-06T21:42:17.460Z,98592.94
2019-03-06T21:44:43.924Z,98592.77
2019-03-06T21:47:10.206Z,98590.31
2019-03-06T21:49:36.449Z,98581.45
2019-03-06T21:52:02.819Z,98581.66
2019-03-06T21:54:29.034Z,98579.07
2019-03-06T21:56:55.203Z,98579.25
2019-03-06T21:59:21.363Z,98574.67
2019-03-06T22:01:47.702Z,98571.70
2019-03-06T22:04:13.853Z,98567.30
2019-03-06T22:06:40.037Z,98571.62
2019-03-06T22:09:10.598Z,98569.50
2019-03-06T22:11:36.774Z,98575.64
2019-03-06T22:14:03.027Z,98580.48
2019-03-06T22:16:29.289Z,98583.98
2019-03-06T22:18:55.449Z,98579.71
2019-03-06T22:21:21.669Z,98580.39
2019-03-06T22:23:47.806Z,98575.77
2019-03-06T22:26:13.997Z,98566.05
2019-03-06T22:28:40.559Z,98561.10
2019-03-06T22:31:06.731Z,98570.03
2019-03-06T22:33:32.893Z,98567.58
2019-03-06T22:35:59.474Z,98561.34
2019-03-06T22:38:25.629Z,98560.68
2019-03-06T22:40:51.785Z,98551.63
2019-03-06T22:43:17.963Z,98546.52
2019-03-06T22:45:44.212Z,98551.96
2019-03-06T22:48:10.441Z,98552.45
2019-03-06T22:50:36.632Z,98542.42
2019-03-06T22:53:02.807Z,98548.70
2019-03-06T22:55:28.973Z,98540.11
2019-03-06T22:57:55.236Z,98532.53
2019-03-06T23:00:43.834Z,98535.20
2019-03-06T23:03:10.419Z,98523.47
2019-03-06T23:05:36.984Z,98520.53
2019-03-06T23:08:03.264Z,98513.75
2019-03-06T23:10:29.414Z,98511.16
2019-03-06T23:12:55.799Z,98504.69
2019-03-06T23:15:21.948Z,98500.39
2019-03-06T23:17:48.126Z,98499.56
2019-03-06T23:20:14.561Z,98501.73
2019-03-06T23:22:40.770Z,98494.48
2019-03-06T23:25:06.997Z,98485.39
2019-03-06T23:27:33.165Z,98484.73
2019-03-06T23:29:59.348Z,98486.39
2019-03-06T23:32:32.074Z,98486.39
2019-03-06T23:34:58.248Z,98479.47
2019-03-06T23:37:24.383Z,98472.72
2019-03-06T23:39:50.656Z,98466.11
2019-03-06T23:42:17.355Z,98456.23
2019-03-06T23:44:43.519Z,98457.70
2019-03-06T23:47:09.691Z,98461.37
2019-03-06T23:49:37.050Z,98458.27
2019-03-06T23:52:05.126Z,98451.97
2019-03-06T23:54:31.575Z,98455.98
2019-03-06T23:56:58.363Z,98445.59
2019-03-06T23:59:24.531Z,98445.27
